sensor_id;sensor_type;location;lat;lon;timestamp;P1;durP1;ratioP1;P2;durP2;ratioP2
80261;SDS011;69567;47.574;8.580;2024-03-02T00:00:40;3.17;;;2.17;;
80261;SDS011;69567;47.574;8.580;2024-03-02T00:03:08;3.00;;;2.30;;
80261;SDS011;69567;47.574;8.580;2024-03-02T00:05:37;3.20;;;1.98;;
80261;SDS011;69567;47.574;8.580;2024-03-02T00:08:05;3.30;;;1.70;;
80261;SDS011;69567;47.574;8.580;2024-03-02T00:10:35;2.47;;;1.67;;
80261;SDS011;69567;47.574;8.580;2024-03-02T00:13:07;3.67;;;2.28;;
80261;SDS011;69567;47.574;8.580;2024-03-02T00:15:42;3.08;;;1.92;;
80261;SDS011;69567;47.574;8.580;2024-03-02T00:18:14;2.70;;;2.03;;
80261;SDS011;69567;47.574;8.580;2024-03-02T00:20:44;2.63;;;2.28;;
80261;SDS011;69567;47.574;8.580;2024-03-02T00:23:14;3.35;;;2.30;;
80261;SDS011;69567;47.574;8.580;2024-03-02T00:25:43;3.78;;;2.20;;
80261;SDS011;69567;47.574;8.580;2024-03-02T00:28:19;3.10;;;2.55;;
80261;SDS011;69567;47.574;8.580;2024-03-02T00:30:57;3.67;;;3.13;;
80261;SDS011;69567;47.574;8.580;2024-03-02T00:33:26;3.63;;;2.28;;
80261;SDS011;69567;47.574;8.580;2024-03-02T00:35:55;2.40;;;2.03;;
80261;SDS011;69567;47.574;8.580;2024-03-02T00:38:23;1.98;;;1.77;;
80261;SDS011;69567;47.574;8.580;2024-03-02T00:40:51;2.08;;;1.30;;
80261;SDS011;69567;47.574;8.580;2024-03-02T00:43:34;2.72;;;1.77;;
80261;SDS011;69567;47.574;8.580;2024-03-02T00:46:10;3.50;;;2.15;;
80261;SDS011;69567;47.574;8.580;2024-03-02T00:48:39;3.05;;;2.28;;
80261;SDS011;69567;47.574;8.580;2024-03-02T00:51:12;2.95;;;2.22;;
80261;SDS011;69567;47.574;8.580;2024-03-02T00:53:40;1.77;;;1.30;;
80261;SDS011;69567;47.574;8.580;2024-03-02T00:56:08;3.22;;;1.95;;
80261;SDS011;69567;47.574;8.580;2024-03-02T00:58:38;2.70;;;1.90;;
80261;SDS011;69567;47.574;8.580;2024-03-02T01:01:06;2.45;;;1.83;;
80261;SDS011;69567;47.574;8.580;2024-03-02T01:03:34;2.67;;;1.52;;
80261;SDS011;69567;47.574;8.580;2024-03-02T01:06:01;3.72;;;1.95;;
80261;SDS011;69567;47.574;8.580;2024-03-02T01:08:29;3.40;;;1.67;;
80261;SDS011;69567;47.574;8.580;2024-03-02T01:10:57;4.05;;;2.53;;
80261;SDS011;69567;47.574;8.580;2024-03-02T01:13:25;3.47;;;2.60;;
80261;SDS011;69567;47.574;8.580;2024-03-02T01:15:54;4.75;;;2.70;;
80261;SDS011;69567;47.574;8.580;2024-03-02T01:18:22;3.30;;;2.00;;
80261;SDS011;69567;47.574;8.580;2024-03-02T01:20:50;3.58;;;2.40;;
80261;SDS011;69567;47.574;8.580;2024-03-02T01:23:19;2.83;;;1.90;;
80261;SDS011;69567;47.574;8.580;2024-03-02T01:25:47;2.80;;;2.25;;
80261;SDS011;69567;47.574;8.580;2024-03-02T01:28:15;2.35;;;1.63;;
80261;SDS011;69567;47.574;8.580;2024-03-02T01:30:44;3.35;;;2.20;;
80261;SDS011;69567;47.574;8.580;2024-03-02T01:33:13;2.92;;;2.28;;
80261;SDS011;69567;47.574;8.580;2024-03-02T01:35:42;1.60;;;1.50;;
80261;SDS011;69567;47.574;8.580;2024-03-02T01:38:10;2.40;;;1.88;;
80261;SDS011;69567;47.574;8.580;2024-03-02T01:40:38;3.42;;;2.45;;
80261;SDS011;69567;47.574;8.580;2024-03-02T01:43:06;3.85;;;2.30;;
80261;SDS011;69567;47.574;8.580;2024-03-02T01:45:34;4.68;;;2.72;;
80261;SDS011;69567;47.574;8.580;2024-03-02T01:48:04;2.85;;;2.33;;
80261;SDS011;69567;47.574;8.580;2024-03-02T01:50:34;3.38;;;2.38;;
80261;SDS011;69567;47.574;8.580;2024-03-02T01:53:02;3.60;;;2.63;;
80261;SDS011;69567;47.574;8.580;2024-03-02T01:55:30;3.20;;;2.30;;
80261;SDS011;69567;47.574;8.580;2024-03-02T01:57:59;3.20;;;2.03;;
80261;SDS011;69567;47.574;8.580;2024-03-02T02:00:27;3.67;;;2.05;;
80261;SDS011;69567;47.574;8.580;2024-03-02T02:02:56;4.93;;;2.72;;
80261;SDS011;69567;47.574;8.580;2024-03-02T02:05:25;4.65;;;2.97;;
80261;SDS011;69567;47.574;8.580;2024-03-02T02:07:54;6.78;;;3.42;;
80261;SDS011;69567;47.574;8.580;2024-03-02T02:10:25;7.80;;;3.90;;
80261;SDS011;69567;47.574;8.580;2024-03-02T02:12:53;6.57;;;3.38;;
80261;SDS011;69567;47.574;8.580;2024-03-02T02:15:21;3.95;;;2.35;;
80261;SDS011;69567;47.574;8.580;2024-03-02T02:17:49;5.47;;;3.30;;
80261;SDS011;69567;47.574;8.580;2024-03-02T02:20:17;4.38;;;2.78;;
80261;SDS011;69567;47.574;8.580;2024-03-02T02:22:56;5.25;;;2.83;;
80261;SDS011;69567;47.574;8.580;2024-03-02T02:25:23;4.22;;;2.58;;
80261;SDS011;69567;47.574;8.580;2024-03-02T02:27:52;4.15;;;2.22;;
80261;SDS011;69567;47.574;8.580;2024-03-02T02:30:20;3.63;;;1.70;;
80261;SDS011;69567;47.574;8.580;2024-03-02T02:32:49;4.28;;;2.75;;
80261;SDS011;69567;47.574;8.580;2024-03-02T02:35:17;6.40;;;3.05;;
80261;SDS011;69567;47.574;8.580;2024-03-02T02:37:45;6.07;;;3.47;;
80261;SDS011;69567;47.574;8.580;2024-03-02T02:40:15;3.65;;;2.05;;
80261;SDS011;69567;47.574;8.580;2024-03-02T02:42:45;3.47;;;2.45;;
80261;SDS011;69567;47.574;8.580;2024-03-02T02:45:13;7.55;;;3.20;;
80261;SDS011;69567;47.574;8.580;2024-03-02T02:47:42;5.80;;;3.38;;
80261;SDS011;69567;47.574;8.580;2024-03-02T02:50:11;4.05;;;2.95;;
80261;SDS011;69567;47.574;8.580;2024-03-02T02:52:40;5.13;;;2.45;;
80261;SDS011;69567;47.574;8.580;2024-03-02T02:55:09;4.43;;;2.15;;
80261;SDS011;69567;47.574;8.580;2024-03-02T02:57:39;4.75;;;2.83;;
80261;SDS011;69567;47.574;8.580;2024-03-02T03:00:09;5.63;;;3.15;;
80261;SDS011;69567;47.574;8.580;2024-03-02T03:02:43;5.45;;;3.20;;
80261;SDS011;69567;47.574;8.580;2024-03-02T03:05:12;7.38;;;2.67;;
80261;SDS011;69567;47.574;8.580;2024-03-02T03:07:40;4.18;;;2.78;;
80261;SDS011;69567;47.574;8.580;2024-03-02T03:10:09;4.70;;;2.70;;
80261;SDS011;69567;47.574;8.580;2024-03-02T03:12:38;5.50;;;2.53;;
80261;SDS011;69567;47.574;8.580;2024-03-02T03:15:07;5.68;;;3.40;;
80261;SDS011;69567;47.574;8.580;2024-03-02T03:17:36;8.30;;;3.38;;
80261;SDS011;69567;47.574;8.580;2024-03-02T03:20:04;4.10;;;2.72;;
80261;SDS011;69567;47.574;8.580;2024-03-02T03:22:36;6.38;;;3.40;;
80261;SDS011;69567;47.574;8.580;2024-03-02T03:25:04;5.72;;;3.65;;
80261;SDS011;69567;47.574;8.580;2024-03-02T03:27:33;5.60;;;3.78;;
80261;SDS011;69567;47.574;8.580;2024-03-02T03:30:02;3.30;;;2.22;;
80261;SDS011;69567;47.574;8.580;2024-03-02T03:32:32;6.30;;;3.05;;
80261;SDS011;69567;47.574;8.580;2024-03-02T03:35:00;5.15;;;3.20;;
80261;SDS011;69567;47.574;8.580;2024-03-02T03:37:28;3.50;;;2.50;;
80261;SDS011;69567;47.574;8.580;2024-03-02T03:40:01;4.90;;;2.33;;
80261;SDS011;69567;47.574;8.580;2024-03-02T03:42:28;4.65;;;2.45;;
80261;SDS011;69567;47.574;8.580;2024-03-02T03:44:56;5.97;;;3.40;;
80261;SDS011;69567;47.574;8.580;2024-03-02T03:47:26;6.10;;;3.88;;
80261;SDS011;69567;47.574;8.580;2024-03-02T03:49:54;6.82;;;3.67;;
80261;SDS011;69567;47.574;8.580;2024-03-02T03:52:22;5.30;;;2.90;;
80261;SDS011;69567;47.574;8.580;2024-03-02T03:54:49;3.65;;;1.83;;
80261;SDS011;69567;47.574;8.580;2024-03-02T03:57:17;3.53;;;1.85;;
80261;SDS011;69567;47.574;8.580;2024-03-02T03:59:45;1.08;;;0.50;;
80261;SDS011;69567;47.574;8.580;2024-03-02T04:02:14;1.77;;;0.93;;
80261;SDS011;69567;47.574;8.580;2024-03-02T04:04:43;2.63;;;1.20;;
80261;SDS011;69567;47.574;8.580;2024-03-02T04:07:11;2.72;;;1.67;;
80261;SDS011;69567;47.574;8.580;2024-03-02T04:09:39;2.33;;;1.45;;
80261;SDS011;69567;47.574;8.580;2024-03-02T04:12:07;3.05;;;1.48;;
80261;SDS011;69567;47.574;8.580;2024-03-02T04:14:35;3.20;;;2.30;;
80261;SDS011;69567;47.574;8.580;2024-03-02T04:17:04;5.53;;;2.75;;
80261;SDS011;69567;47.574;8.580;2024-03-02T04:19:32;2.40;;;1.35;;
80261;SDS011;69567;47.574;8.580;2024-03-02T04:22:02;5.43;;;2.80;;
80261;SDS011;69567;47.574;8.580;2024-03-02T04:24:43;5.63;;;2.42;;
80261;SDS011;69567;47.574;8.580;2024-03-02T04:27:12;4.38;;;2.05;;
80261;SDS011;69567;47.574;8.580;2024-03-02T04:29:39;2.50;;;1.27;;
80261;SDS011;69567;47.574;8.580;2024-03-02T04:32:07;4.45;;;2.03;;
80261;SDS011;69567;47.574;8.580;2024-03-02T04:34:35;5.15;;;2.58;;
80261;SDS011;69567;47.574;8.580;2024-03-02T04:37:04;5.65;;;2.92;;
80261;SDS011;69567;47.574;8.580;2024-03-02T04:39:34;5.93;;;3.15;;
80261;SDS011;69567;47.574;8.580;2024-03-02T04:42:02;6.78;;;3.90;;
80261;SDS011;69567;47.574;8.580;2024-03-02T04:44:30;6.50;;;3.03;;
80261;SDS011;69567;47.574;8.580;2024-03-02T04:46:58;2.97;;;1.48;;
80261;SDS011;69567;47.574;8.580;2024-03-02T04:49:26;3.45;;;1.17;;
80261;SDS011;69567;47.574;8.580;2024-03-02T04:51:54;5.00;;;2.58;;
80261;SDS011;69567;47.574;8.580;2024-03-02T04:54:24;6.40;;;3.78;;
80261;SDS011;69567;47.574;8.580;2024-03-02T04:56:52;4.55;;;3.00;;
80261;SDS011;69567;47.574;8.580;2024-03-02T04:59:20;4.40;;;2.30;;
80261;SDS011;69567;47.574;8.580;2024-03-02T05:01:48;3.55;;;2.22;;
80261;SDS011;69567;47.574;8.580;2024-03-02T05:04:16;6.18;;;3.55;;
80261;SDS011;69567;47.574;8.580;2024-03-02T05:06:44;4.05;;;2.20;;
80261;SDS011;69567;47.574;8.580;2024-03-02T05:09:18;6.10;;;2.90;;
80261;SDS011;69567;47.574;8.580;2024-03-02T05:11:48;4.82;;;2.78;;
80261;SDS011;69567;47.574;8.580;2024-03-02T05:14:43;5.18;;;2.65;;
80261;SDS011;69567;47.574;8.580;2024-03-02T05:17:11;6.78;;;3.63;;
80261;SDS011;69567;47.574;8.580;2024-03-02T05:19:39;6.45;;;3.60;;
80261;SDS011;69567;47.574;8.580;2024-03-02T05:22:07;5.70;;;3.55;;
80261;SDS011;69567;47.574;8.580;2024-03-02T05:24:35;5.18;;;3.13;;
80261;SDS011;69567;47.574;8.580;2024-03-02T05:27:04;3.40;;;2.03;;
80261;SDS011;69567;47.574;8.580;2024-03-02T05:29:33;5.05;;;1.85;;
80261;SDS011;69567;47.574;8.580;2024-03-02T05:32:01;4.93;;;2.72;;
80261;SDS011;69567;47.574;8.580;2024-03-02T05:34:29;5.28;;;2.78;;
80261;SDS011;69567;47.574;8.580;2024-03-02T05:36:59;4.72;;;2.83;;
80261;SDS011;69567;47.574;8.580;2024-03-02T05:39:27;5.57;;;2.65;;
80261;SDS011;69567;47.574;8.580;2024-03-02T05:41:55;4.18;;;1.35;;
80261;SDS011;69567;47.574;8.580;2024-03-02T05:44:24;4.13;;;2.90;;
80261;SDS011;69567;47.574;8.580;2024-03-02T05:46:52;5.05;;;3.55;;
80261;SDS011;69567;47.574;8.580;2024-03-02T05:49:20;6.05;;;3.50;;
80261;SDS011;69567;47.574;8.580;2024-03-02T05:51:48;6.45;;;2.88;;
80261;SDS011;69567;47.574;8.580;2024-03-02T05:54:16;4.78;;;3.83;;
80261;SDS011;69567;47.574;8.580;2024-03-02T05:56:43;3.88;;;2.50;;
80261;SDS011;69567;47.574;8.580;2024-03-02T05:59:11;4.35;;;2.47;;
80261;SDS011;69567;47.574;8.580;2024-03-02T06:01:42;4.63;;;2.50;;
80261;SDS011;69567;47.574;8.580;2024-03-02T06:04:10;5.28;;;2.70;;
80261;SDS011;69567;47.574;8.580;2024-03-02T06:06:38;3.22;;;1.85;;
80261;SDS011;69567;47.574;8.580;2024-03-02T06:09:06;2.67;;;1.25;;
80261;SDS011;69567;47.574;8.580;2024-03-02T06:11:35;3.50;;;1.90;;
80261;SDS011;69567;47.574;8.580;2024-03-02T06:14:03;2.78;;;1.52;;
80261;SDS011;69567;47.574;8.580;2024-03-02T06:16:31;1.80;;;1.13;;
80261;SDS011;69567;47.574;8.580;2024-03-02T06:19:03;2.05;;;0.82;;
80261;SDS011;69567;47.574;8.580;2024-03-02T06:21:31;3.42;;;1.92;;
80261;SDS011;69567;47.574;8.580;2024-03-02T06:24:00;5.50;;;2.03;;
80261;SDS011;69567;47.574;8.580;2024-03-02T06:26:28;2.30;;;1.08;;
80261;SDS011;69567;47.574;8.580;2024-03-02T06:28:58;5.15;;;2.25;;
80261;SDS011;69567;47.574;8.580;2024-03-02T06:31:28;0.63;;;0.63;;
80261;SDS011;69567;47.574;8.580;2024-03-02T06:33:56;3.10;;;1.60;;
80261;SDS011;69567;47.574;8.580;2024-03-02T06:36:25;0.70;;;0.55;;
80261;SDS011;69567;47.574;8.580;2024-03-02T06:38:53;1.52;;;0.60;;
80261;SDS011;69567;47.574;8.580;2024-03-02T06:41:21;2.03;;;1.35;;
80261;SDS011;69567;47.574;8.580;2024-03-02T06:43:50;2.30;;;1.00;;
80261;SDS011;69567;47.574;8.580;2024-03-02T06:46:26;1.08;;;0.50;;
80261;SDS011;69567;47.574;8.580;2024-03-02T06:48:53;3.50;;;1.92;;
80261;SDS011;69567;47.574;8.580;2024-03-02T06:51:22;4.30;;;2.17;;
80261;SDS011;69567;47.574;8.580;2024-03-02T06:53:51;1.88;;;0.90;;
80261;SDS011;69567;47.574;8.580;2024-03-02T06:56:18;0.30;;;0.30;;
80261;SDS011;69567;47.574;8.580;2024-03-02T06:58:47;1.40;;;0.90;;
80261;SDS011;69567;47.574;8.580;2024-03-02T07:01:15;4.50;;;2.25;;
80261;SDS011;69567;47.574;8.580;2024-03-02T07:03:42;4.53;;;3.05;;
80261;SDS011;69567;47.574;8.580;2024-03-02T07:06:10;1.88;;;1.05;;
80261;SDS011;69567;47.574;8.580;2024-03-02T07:08:38;1.17;;;1.08;;
80261;SDS011;69567;47.574;8.580;2024-03-02T07:11:07;0.90;;;0.63;;
80261;SDS011;69567;47.574;8.580;2024-03-02T07:13:35;0.35;;;0.30;;
80261;SDS011;69567;47.574;8.580;2024-03-02T07:16:04;0.03;;;0.03;;
80261;SDS011;69567;47.574;8.580;2024-03-02T07:18:51;3.83;;;2.15;;
80261;SDS011;69567;47.574;8.580;2024-03-02T07:21:19;2.00;;;1.25;;
80261;SDS011;69567;47.574;8.580;2024-03-02T07:23:48;4.00;;;2.60;;
80261;SDS011;69567;47.574;8.580;2024-03-02T07:26:18;2.15;;;1.48;;
80261;SDS011;69567;47.574;8.580;2024-03-02T07:31:17;1.65;;;0.75;;
80261;SDS011;69567;47.574;8.580;2024-03-02T07:33:45;1.95;;;0.57;;
80261;SDS011;69567;47.574;8.580;2024-03-02T07:36:13;1.50;;;0.75;;
80261;SDS011;69567;47.574;8.580;2024-03-02T07:38:42;2.15;;;1.38;;
80261;SDS011;69567;47.574;8.580;2024-03-02T07:41:11;1.50;;;1.38;;
80261;SDS011;69567;47.574;8.580;2024-03-02T07:43:41;1.67;;;1.08;;
80261;SDS011;69567;47.574;8.580;2024-03-02T07:46:09;3.67;;;2.10;;
80261;SDS011;69567;47.574;8.580;2024-03-02T07:48:36;0.57;;;0.57;;
80261;SDS011;69567;47.574;8.580;2024-03-02T07:51:05;2.05;;;1.30;;
80261;SDS011;69567;47.574;8.580;2024-03-02T07:53:33;1.70;;;0.70;;
80261;SDS011;69567;47.574;8.580;2024-03-02T07:56:01;4.97;;;1.73;;
80261;SDS011;69567;47.574;8.580;2024-03-02T07:58:29;1.98;;;1.13;;
80261;SDS011;69567;47.574;8.580;2024-03-02T08:01:01;2.38;;;1.65;;
80261;SDS011;69567;47.574;8.580;2024-03-02T08:03:31;4.50;;;2.38;;
80261;SDS011;69567;47.574;8.580;2024-03-02T08:06:01;11.68;;;5.15;;
80261;SDS011;69567;47.574;8.580;2024-03-02T08:08:28;10.80;;;4.68;;
80261;SDS011;69567;47.574;8.580;2024-03-02T08:10:56;18.05;;;7.82;;
80261;SDS011;69567;47.574;8.580;2024-03-02T08:13:27;13.13;;;6.60;;
80261;SDS011;69567;47.574;8.580;2024-03-02T08:15:54;7.10;;;2.58;;
80261;SDS011;69567;47.574;8.580;2024-03-02T08:18:24;10.40;;;4.45;;
80261;SDS011;69567;47.574;8.580;2024-03-02T08:20:52;6.68;;;3.95;;
80261;SDS011;69567;47.574;8.580;2024-03-02T08:23:20;5.45;;;2.67;;
80261;SDS011;69567;47.574;8.580;2024-03-02T08:25:48;5.43;;;2.22;;
80261;SDS011;69567;47.574;8.580;2024-03-02T08:28:16;3.88;;;1.65;;
80261;SDS011;69567;47.574;8.580;2024-03-02T08:30:45;4.13;;;2.90;;
80261;SDS011;69567;47.574;8.580;2024-03-02T08:33:13;3.38;;;1.40;;
80261;SDS011;69567;47.574;8.580;2024-03-02T08:35:43;3.40;;;2.28;;
80261;SDS011;69567;47.574;8.580;2024-03-02T08:38:11;5.47;;;2.50;;
80261;SDS011;69567;47.574;8.580;2024-03-02T08:40:39;3.00;;;1.83;;
80261;SDS011;69567;47.574;8.580;2024-03-02T08:43:07;2.22;;;1.25;;
80261;SDS011;69567;47.574;8.580;2024-03-02T08:45:35;4.00;;;2.35;;
80261;SDS011;69567;47.574;8.580;2024-03-02T08:48:04;3.58;;;2.47;;
80261;SDS011;69567;47.574;8.580;2024-03-02T08:50:32;16.08;;;6.72;;
80261;SDS011;69567;47.574;8.580;2024-03-02T08:53:01;10.82;;;4.63;;
80261;SDS011;69567;47.574;8.580;2024-03-02T08:55:29;2.13;;;1.00;;
80261;SDS011;69567;47.574;8.580;2024-03-02T08:57:57;1.08;;;0.60;;
80261;SDS011;69567;47.574;8.580;2024-03-02T09:00:25;4.35;;;1.15;;
80261;SDS011;69567;47.574;8.580;2024-03-02T09:02:53;0.00;;;0.00;;
80261;SDS011;69567;47.574;8.580;2024-03-02T09:05:21;0.93;;;0.60;;
80261;SDS011;69567;47.574;8.580;2024-03-02T09:07:49;0.90;;;0.38;;
80261;SDS011;69567;47.574;8.580;2024-03-02T09:10:18;0.60;;;0.30;;
80261;SDS011;69567;47.574;8.580;2024-03-02T09:12:46;0.43;;;0.20;;
80261;SDS011;69567;47.574;8.580;2024-03-02T09:15:15;0.30;;;0.30;;
80261;SDS011;69567;47.574;8.580;2024-03-02T09:17:43;0.73;;;0.30;;
80261;SDS011;69567;47.574;8.580;2024-03-02T09:20:11;1.52;;;0.28;;
80261;SDS011;69567;47.574;8.580;2024-03-02T09:22:40;0.85;;;0.55;;
80261;SDS011;69567;47.574;8.580;2024-03-02T09:25:08;1.50;;;0.60;;
80261;SDS011;69567;47.574;8.580;2024-03-02T09:27:38;1.30;;;0.15;;
80261;SDS011;69567;47.574;8.580;2024-03-02T09:30:08;1.90;;;0.93;;
80261;SDS011;69567;47.574;8.580;2024-03-02T09:32:36;2.70;;;1.35;;
80261;SDS011;69567;47.574;8.580;2024-03-02T09:35:05;0.57;;;0.30;;
80261;SDS011;69567;47.574;8.580;2024-03-02T09:37:33;1.35;;;0.43;;
80261;SDS011;69567;47.574;8.580;2024-03-02T09:40:01;1.02;;;0.82;;
80261;SDS011;69567;47.574;8.580;2024-03-02T09:42:29;1.38;;;0.43;;
80261;SDS011;69567;47.574;8.580;2024-03-02T09:45:00;0.82;;;0.32;;
80261;SDS011;69567;47.574;8.580;2024-03-02T09:47:28;0.40;;;0.28;;
80261;SDS011;69567;47.574;8.580;2024-03-02T09:49:56;0.00;;;0.00;;
80261;SDS011;69567;47.574;8.580;2024-03-02T09:52:24;0.70;;;0.32;;
80261;SDS011;69567;47.574;8.580;2024-03-02T09:54:52;1.35;;;0.57;;
80261;SDS011;69567;47.574;8.580;2024-03-02T09:57:20;2.58;;;0.90;;
80261;SDS011;69567;47.574;8.580;2024-03-02T09:59:47;1.45;;;0.73;;
80261;SDS011;69567;47.574;8.580;2024-03-02T10:02:17;3.45;;;2.03;;
80261;SDS011;69567;47.574;8.580;2024-03-02T10:04:45;6.95;;;4.22;;
80261;SDS011;69567;47.574;8.580;2024-03-02T10:07:13;5.00;;;3.13;;
80261;SDS011;69567;47.574;8.580;2024-03-02T10:09:42;6.97;;;4.68;;
80261;SDS011;69567;47.574;8.580;2024-03-02T10:12:12;4.05;;;2.58;;
80261;SDS011;69567;47.574;8.580;2024-03-02T10:14:40;10.38;;;6.05;;
80261;SDS011;69567;47.574;8.580;2024-03-02T10:17:09;4.05;;;2.08;;
80261;SDS011;69567;47.574;8.580;2024-03-02T10:19:38;6.57;;;3.60;;
80261;SDS011;69567;47.574;8.580;2024-03-02T10:22:07;6.07;;;3.10;;
80261;SDS011;69567;47.574;8.580;2024-03-02T10:24:36;6.80;;;1.77;;
80261;SDS011;69567;47.574;8.580;2024-03-02T10:27:08;3.83;;;2.17;;
80261;SDS011;69567;47.574;8.580;2024-03-02T10:29:37;3.70;;;1.55;;
80261;SDS011;69567;47.574;8.580;2024-03-02T10:32:05;3.90;;;2.00;;
80261;SDS011;69567;47.574;8.580;2024-03-02T10:34:35;4.85;;;1.95;;
80261;SDS011;69567;47.574;8.580;2024-03-02T10:37:05;6.10;;;2.90;;
80261;SDS011;69567;47.574;8.580;2024-03-02T10:39:34;7.95;;;2.20;;
80261;SDS011;69567;47.574;8.580;2024-03-02T10:42:03;1.38;;;1.00;;
80261;SDS011;69567;47.574;8.580;2024-03-02T10:44:31;0.60;;;0.60;;
80261;SDS011;69567;47.574;8.580;2024-03-02T10:47:00;1.83;;;0.70;;
80261;SDS011;69567;47.574;8.580;2024-03-02T10:49:26;0.75;;;0.60;;
80261;SDS011;69567;47.574;8.580;2024-03-02T10:51:54;1.50;;;1.40;;
80261;SDS011;69567;47.574;8.580;2024-03-02T10:54:24;2.63;;;0.85;;
80261;SDS011;69567;47.574;8.580;2024-03-02T10:56:56;1.15;;;0.63;;
80261;SDS011;69567;47.574;8.580;2024-03-02T10:59:26;0.65;;;0.40;;
80261;SDS011;69567;47.574;8.580;2024-03-02T11:01:56;0.40;;;0.10;;
80261;SDS011;69567;47.574;8.580;2024-03-02T11:04:30;0.00;;;0.00;;
80261;SDS011;69567;47.574;8.580;2024-03-02T11:06:59;1.30;;;0.75;;
80261;SDS011;69567;47.574;8.580;2024-03-02T11:09:30;2.65;;;1.45;;
80261;SDS011;69567;47.574;8.580;2024-03-02T11:12:02;2.15;;;1.83;;
80261;SDS011;69567;47.574;8.580;2024-03-02T11:14:30;2.28;;;0.93;;
80261;SDS011;69567;47.574;8.580;2024-03-02T11:17:00;0.30;;;0.30;;
80261;SDS011;69567;47.574;8.580;2024-03-02T11:19:30;4.53;;;1.40;;
80261;SDS011;69567;47.574;8.580;2024-03-02T11:21:58;5.75;;;2.88;;
80261;SDS011;69567;47.574;8.580;2024-03-02T11:24:32;1.45;;;1.35;;
80261;SDS011;69567;47.574;8.580;2024-03-02T11:27:04;0.00;;;0.00;;
80261;SDS011;69567;47.574;8.580;2024-03-02T11:29:43;0.28;;;0.28;;
80261;SDS011;69567;47.574;8.580;2024-03-02T11:32:14;1.77;;;1.63;;
80261;SDS011;69567;47.574;8.580;2024-03-02T11:34:42;0.50;;;0.50;;
80261;SDS011;69567;47.574;8.580;2024-03-02T11:37:13;0.63;;;0.63;;
80261;SDS011;69567;47.574;8.580;2024-03-02T11:39:43;0.52;;;0.38;;
80261;SDS011;69567;47.574;8.580;2024-03-02T11:42:12;3.45;;;1.45;;
80261;SDS011;69567;47.574;8.580;2024-03-02T11:44:42;1.13;;;0.80;;
80261;SDS011;69567;47.574;8.580;2024-03-02T11:47:10;0.75;;;0.75;;
80261;SDS011;69567;47.574;8.580;2024-03-02T11:49:41;1.17;;;1.00;;
80261;SDS011;69567;47.574;8.580;2024-03-02T11:52:09;0.82;;;0.43;;
80261;SDS011;69567;47.574;8.580;2024-03-02T11:54:38;0.90;;;0.47;;
80261;SDS011;69567;47.574;8.580;2024-03-02T11:57:08;2.78;;;0.90;;
80261;SDS011;69567;47.574;8.580;2024-03-02T11:59:36;0.63;;;0.60;;
80261;SDS011;69567;47.574;8.580;2024-03-02T12:02:04;0.80;;;0.35;;
80261;SDS011;69567;47.574;8.580;2024-03-02T12:04:38;2.17;;;1.40;;
80261;SDS011;69567;47.574;8.580;2024-03-02T12:07:09;2.72;;;0.85;;
80261;SDS011;69567;47.574;8.580;2024-03-02T12:09:38;1.02;;;0.55;;
80261;SDS011;69567;47.574;8.580;2024-03-02T12:12:06;2.03;;;0.73;;
80261;SDS011;69567;47.574;8.580;2024-03-02T12:14:36;1.63;;;0.82;;
80261;SDS011;69567;47.574;8.580;2024-03-02T12:17:04;1.42;;;0.63;;
80261;SDS011;69567;47.574;8.580;2024-03-02T12:19:33;1.00;;;0.82;;
80261;SDS011;69567;47.574;8.580;2024-03-02T12:22:00;5.18;;;1.88;;
80261;SDS011;69567;47.574;8.580;2024-03-02T12:24:29;6.32;;;2.13;;
80261;SDS011;69567;47.574;8.580;2024-03-02T12:26:57;1.95;;;0.80;;
80261;SDS011;69567;47.574;8.580;2024-03-02T12:29:25;1.13;;;0.45;;
80261;SDS011;69567;47.574;8.580;2024-03-02T12:31:54;1.15;;;0.88;;
80261;SDS011;69567;47.574;8.580;2024-03-02T12:34:22;2.10;;;1.50;;
80261;SDS011;69567;47.574;8.580;2024-03-02T12:36:51;1.13;;;0.40;;
80261;SDS011;69567;47.574;8.580;2024-03-02T12:39:20;0.50;;;0.45;;
80261;SDS011;69567;47.574;8.580;2024-03-02T12:41:49;2.47;;;1.38;;
80261;SDS011;69567;47.574;8.580;2024-03-02T12:44:17;1.40;;;0.57;;
80261;SDS011;69567;47.574;8.580;2024-03-02T12:46:46;2.38;;;1.02;;
80261;SDS011;69567;47.574;8.580;2024-03-02T12:49:15;0.93;;;0.47;;
80261;SDS011;69567;47.574;8.580;2024-03-02T12:51:43;0.40;;;0.20;;
80261;SDS011;69567;47.574;8.580;2024-03-02T12:54:13;1.27;;;0.52;;
80261;SDS011;69567;47.574;8.580;2024-03-02T12:56:42;4.47;;;1.88;;
80261;SDS011;69567;47.574;8.580;2024-03-02T12:59:17;1.55;;;0.65;;
80261;SDS011;69567;47.574;8.580;2024-03-02T13:01:49;1.17;;;0.70;;
80261;SDS011;69567;47.574;8.580;2024-03-02T13:04:22;2.78;;;1.48;;
80261;SDS011;69567;47.574;8.580;2024-03-02T13:06:51;1.63;;;1.33;;
80261;SDS011;69567;47.574;8.580;2024-03-02T13:09:20;1.92;;;1.00;;
80261;SDS011;69567;47.574;8.580;2024-03-02T13:11:48;2.10;;;1.38;;
80261;SDS011;69567;47.574;8.580;2024-03-02T13:14:16;1.27;;;0.60;;
80261;SDS011;69567;47.574;8.580;2024-03-02T13:16:44;1.25;;;0.60;;
80261;SDS011;69567;47.574;8.580;2024-03-02T13:19:14;1.58;;;0.70;;
80261;SDS011;69567;47.574;8.580;2024-03-02T13:21:43;0.90;;;0.47;;
80261;SDS011;69567;47.574;8.580;2024-03-02T13:24:11;0.63;;;0.20;;
80261;SDS011;69567;47.574;8.580;2024-03-02T13:26:39;0.20;;;0.20;;
80261;SDS011;69567;47.574;8.580;2024-03-02T13:29:07;0.50;;;0.40;;
80261;SDS011;69567;47.574;8.580;2024-03-02T13:31:35;1.35;;;0.98;;
80261;SDS011;69567;47.574;8.580;2024-03-02T13:34:03;0.45;;;0.45;;
80261;SDS011;69567;47.574;8.580;2024-03-02T13:36:31;0.82;;;0.50;;
80261;SDS011;69567;47.574;8.580;2024-03-02T13:39:00;0.40;;;0.20;;
80261;SDS011;69567;47.574;8.580;2024-03-02T13:41:29;0.00;;;0.00;;
80261;SDS011;69567;47.574;8.580;2024-03-02T13:43:56;0.47;;;0.45;;
80261;SDS011;69567;47.574;8.580;2024-03-02T13:46:27;0.10;;;0.10;;
80261;SDS011;69567;47.574;8.580;2024-03-02T13:48:55;0.00;;;0.00;;
80261;SDS011;69567;47.574;8.580;2024-03-02T13:51:23;0.00;;;0.00;;
80261;SDS011;69567;47.574;8.580;2024-03-02T13:53:51;0.00;;;0.00;;
80261;SDS011;69567;47.574;8.580;2024-03-02T13:56:21;0.10;;;0.10;;
80261;SDS011;69567;47.574;8.580;2024-03-02T13:58:49;0.15;;;0.10;;
80261;SDS011;69567;47.574;8.580;2024-03-02T14:01:16;0.35;;;0.20;;
80261;SDS011;69567;47.574;8.580;2024-03-02T14:03:45;0.20;;;0.20;;
80261;SDS011;69567;47.574;8.580;2024-03-02T14:06:13;0.10;;;0.10;;
80261;SDS011;69567;47.574;8.580;2024-03-02T14:08:41;0.00;;;0.00;;
80261;SDS011;69567;47.574;8.580;2024-03-02T14:11:11;0.00;;;0.00;;
80261;SDS011;69567;47.574;8.580;2024-03-02T14:13:43;0.28;;;0.20;;
80261;SDS011;69567;47.574;8.580;2024-03-02T14:16:16;0.10;;;0.10;;
80261;SDS011;69567;47.574;8.580;2024-03-02T14:18:44;0.40;;;0.40;;
80261;SDS011;69567;47.574;8.580;2024-03-02T14:21:12;0.00;;;0.00;;
80261;SDS011;69567;47.574;8.580;2024-03-02T14:23:40;2.22;;;0.88;;
80261;SDS011;69567;47.574;8.580;2024-03-02T14:26:08;0.10;;;0.10;;
80261;SDS011;69567;47.574;8.580;2024-03-02T14:28:36;0.10;;;0.10;;
80261;SDS011;69567;47.574;8.580;2024-03-02T14:31:18;0.03;;;0.03;;
80261;SDS011;69567;47.574;8.580;2024-03-02T14:33:46;0.10;;;0.00;;
80261;SDS011;69567;47.574;8.580;2024-03-02T14:36:14;0.25;;;0.20;;
80261;SDS011;69567;47.574;8.580;2024-03-02T14:38:42;0.30;;;0.30;;
80261;SDS011;69567;47.574;8.580;2024-03-02T14:41:10;0.15;;;0.00;;
80261;SDS011;69567;47.574;8.580;2024-03-02T14:43:38;0.00;;;0.00;;
80261;SDS011;69567;47.574;8.580;2024-03-02T14:46:06;0.10;;;0.10;;
80261;SDS011;69567;47.574;8.580;2024-03-02T14:48:36;0.00;;;0.00;;
80261;SDS011;69567;47.574;8.580;2024-03-02T14:51:04;0.13;;;0.08;;
80261;SDS011;69567;47.574;8.580;2024-03-02T14:53:32;0.20;;;0.10;;
80261;SDS011;69567;47.574;8.580;2024-03-02T14:56:00;0.00;;;0.00;;
80261;SDS011;69567;47.574;8.580;2024-03-02T14:58:28;0.10;;;0.10;;
80261;SDS011;69567;47.574;8.580;2024-03-02T15:00:56;0.22;;;0.22;;